sensor_id;sensor_type;location;lat;lon;timestamp;pressure;altitude;pressure_sealevel;temperature;humidity
21276;BME280;36472;52.170;20.884;2023-09-19T00:00:57;99781.56;;;19.54;88.26
21276;BME280;36472;52.170;20.884;2023-09-19T00:03:39;99778.56;;;19.57;87.91
21276;BME280;36472;52.170;20.884;2023-09-19T00:06:11;99785.09;;;19.54;88.13
21276;BME280;36472;52.170;20.884;2023-09-19T00:08:40;99772.09;;;19.51;88.28
21276;BME280;36472;52.170;20.884;2023-09-19T00:11:13;99777.28;;;19.53;88.54
21276;BME280;36472;52.170;20.884;2023-09-19T00:13:42;99780.28;;;19.50;88.43
21276;BME280;36472;52.170;20.884;2023-09-19T00:16:11;99779.94;;;19.53;88.39
21276;BME280;36472;52.170;20.884;2023-09-19T00:18:42;99772.28;;;19.50;88.44
21276;BME280;36472;52.170;20.884;2023-09-19T00:21:11;99774.78;;;19.51;88.47
21276;BME280;36472;52.170;20.884;2023-09-19T00:23:40;99778.44;;;19.50;88.39
21276;BME280;36472;52.170;20.884;2023-09-19T00:26:09;99777.09;;;19.54;88.18
21276;BME280;36472;52.170;20.884;2023-09-19T00:28:40;99776.78;;;19.49;88.39
21276;BME280;36472;52.170;20.884;2023-09-19T00:31:09;99772.63;;;19.47;88.32
21276;BME280;36472;52.170;20.884;2023-09-19T00:33:39;99764.63;;;19.47;88.67
21276;BME280;36472;52.170;20.884;2023-09-19T00:36:08;99763.81;;;19.46;88.54
21276;BME280;36472;52.170;20.884;2023-09-19T00:38:37;99771.97;;;19.44;88.93
21276;BME280;36472;52.170;20.884;2023-09-19T00:41:06;99764.78;;;19.45;88.89
21276;BME280;36472;52.170;20.884;2023-09-19T00:43:36;99764.97;;;19.43;88.86
21276;BME280;36472;52.170;20.884;2023-09-19T00:46:06;99764.31;;;19.41;88.97
21276;BME280;36472;52.170;20.884;2023-09-19T00:48:41;99758.66;;;19.44;88.64
21276;BME280;36472;52.170;20.884;2023-09-19T00:51:12;99756.97;;;19.43;88.72
21276;BME280;36472;52.170;20.884;2023-09-19T00:53:47;99755.97;;;19.44;88.67
21276;BME280;36472;52.170;20.884;2023-09-19T00:56:16;99751.16;;;19.40;89.03
21276;BME280;36472;52.170;20.884;2023-09-19T00:58:48;99759.31;;;19.38;88.94
21276;BME280;36472;52.170;20.884;2023-09-19T01:01:18;99750.38;;;19.31;89.34
21276;BME280;36472;52.170;20.884;2023-09-19T01:03:49;99750.69;;;19.36;89.06
21276;BME280;36472;52.170;20.884;2023-09-19T01:06:18;99745.69;;;19.33;89.34
21276;BME280;36472;52.170;20.884;2023-09-19T01:08:48;99748.53;;;19.32;89.49
21276;BME280;36472;52.170;20.884;2023-09-19T01:11:30;99743.03;;;19.33;89.30
21276;BME280;36472;52.170;20.884;2023-09-19T01:14:16;99739.38;;;19.34;89.44
21276;BME280;36472;52.170;20.884;2023-09-19T01:16:56;99735.88;;;19.34;89.34
21276;BME280;36472;52.170;20.884;2023-09-19T01:20:08;99740.53;;;19.32;89.55
21276;BME280;36472;52.170;20.884;2023-09-19T01:22:53;99728.25;;;19.31;89.47
21276;BME280;36472;52.170;20.884;2023-09-19T01:26:05;99730.72;;;19.32;89.59
21276;BME280;36472;52.170;20.884;2023-09-19T01:28:52;99727.41;;;19.30;89.47
21276;BME280;36472;52.170;20.884;2023-09-19T01:31:31;99716.44;;;19.25;90.11
21276;BME280;36472;52.170;20.884;2023-09-19T01:34:03;99717.94;;;19.28;89.98
21276;BME280;36472;52.170;20.884;2023-09-19T01:36:35;99717.41;;;19.32;89.62
21276;BME280;36472;52.170;20.884;2023-09-19T01:39:11;99705.41;;;19.36;89.52
21276;BME280;36472;52.170;20.884;2023-09-19T01:41:57;99712.69;;;19.42;89.27
21276;BME280;36472;52.170;20.884;2023-09-19T01:44:38;99711.38;;;19.38;89.19
21276;BME280;36472;52.170;20.884;2023-09-19T01:47:19;99703.53;;;19.37;89.31
21276;BME280;36472;52.170;20.884;2023-09-19T01:50:01;99708.53;;;19.40;89.19
21276;BME280;36472;52.170;20.884;2023-09-19T01:52:42;99704.41;;;19.37;89.40
21276;BME280;36472;52.170;20.884;2023-09-19T01:55:17;99697.41;;;19.36;89.29
21276;BME280;36472;52.170;20.884;2023-09-19T01:57:54;99700.41;;;19.33;89.44
21276;BME280;36472;52.170;20.884;2023-09-19T02:00:29;99702.41;;;19.31;89.37
21276;BME280;36472;52.170;20.884;2023-09-19T02:03:02;99699.28;;;19.28;89.67
21276;BME280;36472;52.170;20.884;2023-09-19T02:05:32;99703.13;;;19.25;89.97
21276;BME280;36472;52.170;20.884;2023-09-19T02:08:01;99695.06;;;19.33;89.80
21276;BME280;36472;52.170;20.884;2023-09-19T02:10:30;99699.75;;;19.31;89.43
21276;BME280;36472;52.170;20.884;2023-09-19T02:13:00;99703.44;;;19.30;89.45
21276;BME280;36472;52.170;20.884;2023-09-19T02:15:31;99698.47;;;19.27;89.77
21276;BME280;36472;52.170;20.884;2023-09-19T02:18:04;99686.94;;;19.27;89.68
21276;BME280;36472;52.170;20.884;2023-09-19T02:20:33;99687.16;;;19.25;89.93
21276;BME280;36472;52.170;20.884;2023-09-19T02:23:02;99689.81;;;19.25;89.74
21276;BME280;36472;52.170;20.884;2023-09-19T02:25:32;99679.16;;;19.25;89.50
21276;BME280;36472;52.170;20.884;2023-09-19T02:28:01;99676.00;;;19.21;89.60
21276;BME280;36472;52.170;20.884;2023-09-19T02:30:30;99672.50;;;19.21;89.76
21276;BME280;36472;52.170;20.884;2023-09-19T02:33:00;99671.50;;;19.22;89.59
21276;BME280;36472;52.170;20.884;2023-09-19T02:35:32;99679.84;;;19.19;89.86
21276;BME280;36472;52.170;20.884;2023-09-19T02:38:04;99673.53;;;19.20;89.64
21276;BME280;36472;52.170;20.884;2023-09-19T02:40:34;99670.56;;;19.15;89.81
21276;BME280;36472;52.170;20.884;2023-09-19T02:43:04;99678.53;;;19.15;89.78
21276;BME280;36472;52.170;20.884;2023-09-19T02:45:34;99668.88;;;19.14;89.78
21276;BME280;36472;52.170;20.884;2023-09-19T02:48:04;99669.22;;;19.11;90.01
21276;BME280;36472;52.170;20.884;2023-09-19T02:50:36;99666.72;;;19.09;90.21
21276;BME280;36472;52.170;20.884;2023-09-19T02:53:06;99662.59;;;19.06;90.22
21276;BME280;36472;52.170;20.884;2023-09-19T02:55:35;99659.09;;;19.06;90.30
21276;BME280;36472;52.170;20.884;2023-09-19T02:58:03;99656.59;;;19.04;90.13
21276;BME280;36472;52.170;20.884;2023-09-19T03:00:35;99654.47;;;19.00;90.18
21276;BME280;36472;52.170;20.884;2023-09-19T03:03:04;99651.97;;;18.98;90.21
21276;BME280;36472;52.170;20.884;2023-09-19T03:05:37;99646.81;;;18.97;90.54
21276;BME280;36472;52.170;20.884;2023-09-19T03:08:06;99644.16;;;18.97;90.52
21276;BME280;36472;52.170;20.884;2023-09-19T03:10:35;99644.50;;;18.94;90.50
21276;BME280;36472;52.170;20.884;2023-09-19T03:13:05;99645.84;;;18.90;90.80
21276;BME280;36472;52.170;20.884;2023-09-19T03:15:41;99646.03;;;18.88;90.90
21276;BME280;36472;52.170;20.884;2023-09-19T03:18:12;99643.38;;;18.88;90.71
21276;BME280;36472;52.170;20.884;2023-09-19T03:20:43;99648.84;;;18.86;90.86
21276;BME280;36472;52.170;20.884;2023-09-19T03:23:12;99645.53;;;18.84;90.86
21276;BME280;36472;52.170;20.884;2023-09-19T03:25:41;99650.00;;;18.84;90.89
21276;BME280;36472;52.170;20.884;2023-09-19T03:28:10;99638.19;;;18.78;91.29
21276;BME280;36472;52.170;20.884;2023-09-19T03:30:39;99642.06;;;18.76;91.57
21276;BME280;36472;52.170;20.884;2023-09-19T03:33:08;99645.38;;;18.78;91.43
21276;BME280;36472;52.170;20.884;2023-09-19T03:35:39;99633.06;;;18.77;91.43
21276;BME280;36472;52.170;20.884;2023-09-19T03:38:10;99636.38;;;18.79;91.46
21276;BME280;36472;52.170;20.884;2023-09-19T03:40:39;99635.06;;;18.75;91.53
21276;BME280;36472;52.170;20.884;2023-09-19T03:43:08;99634.56;;;18.79;91.58
21276;BME280;36472;52.170;20.884;2023-09-19T03:45:37;99629.41;;;18.78;91.66
21276;BME280;36472;52.170;20.884;2023-09-19T03:48:09;99629.41;;;18.78;91.69
21276;BME280;36472;52.170;20.884;2023-09-19T03:50:38;99631.41;;;18.76;92.19
21276;BME280;36472;52.170;20.884;2023-09-19T03:53:07;99632.72;;;18.80;91.86
21276;BME280;36472;52.170;20.884;2023-09-19T03:55:38;99629.41;;;18.78;91.89
21276;BME280;36472;52.170;20.884;2023-09-19T03:58:07;99623.75;;;18.81;92.05
21276;BME280;36472;52.170;20.884;2023-09-19T04:00:36;99620.75;;;18.84;91.59
21276;BME280;36472;52.170;20.884;2023-09-19T04:03:06;99618.75;;;18.86;91.88
21276;BME280;36472;52.170;20.884;2023-09-19T04:05:36;99619.41;;;18.88;91.65
21276;BME280;36472;52.170;20.884;2023-09-19T04:08:05;99614.44;;;18.85;91.71
21276;BME280;36472;52.170;20.884;2023-09-19T04:10:34;99614.44;;;18.85;91.54
21276;BME280;36472;52.170;20.884;2023-09-19T04:13:05;99610.09;;;18.84;91.73
21276;BME280;36472;52.170;20.884;2023-09-19T04:15:35;99612.75;;;18.84;91.67
21276;BME280;36472;52.170;20.884;2023-09-19T04:18:05;99620.94;;;18.82;91.55
21276;BME280;36472;52.170;20.884;2023-09-19T04:20:34;99609.75;;;18.79;91.92
21276;BME280;36472;52.170;20.884;2023-09-19T04:23:03;99608.94;;;18.78;92.09
21276;BME280;36472;52.170;20.884;2023-09-19T04:25:33;99602.63;;;18.79;91.90
21276;BME280;36472;52.170;20.884;2023-09-19T04:28:04;99591.31;;;18.77;91.89
21276;BME280;36472;52.170;20.884;2023-09-19T04:30:33;99595.44;;;18.80;91.67
21276;BME280;36472;52.170;20.884;2023-09-19T04:37:37;99599.31;;;18.69;92.30
21276;BME280;36472;52.170;20.884;2023-09-19T04:40:09;99593.34;;;18.67;92.40
21276;BME280;36472;52.170;20.884;2023-09-19T04:42:41;99594.00;;;18.69;92.74
21276;BME280;36472;52.170;20.884;2023-09-19T04:45:12;99596.13;;;18.74;92.22
21276;BME280;36472;52.170;20.884;2023-09-19T04:47:41;99589.81;;;18.75;92.19
21276;BME280;36472;52.170;20.884;2023-09-19T04:50:11;99587.81;;;18.77;92.15
21276;BME280;36472;52.170;20.884;2023-09-19T04:52:42;99588.44;;;18.79;91.80
21276;BME280;36472;52.170;20.884;2023-09-19T04:55:13;99592.31;;;18.76;92.04
21276;BME280;36472;52.170;20.884;2023-09-19T04:57:47;99592.97;;;18.78;91.92
21276;BME280;36472;52.170;20.884;2023-09-19T05:00:19;99589.81;;;18.75;92.20
21276;BME280;36472;52.170;20.884;2023-09-19T05:02:51;99592.31;;;18.76;92.25
21276;BME280;36472;52.170;20.884;2023-09-19T05:05:22;99586.13;;;18.84;91.92
21276;BME280;36472;52.170;20.884;2023-09-19T05:07:53;99594.09;;;18.92;91.70
21276;BME280;36472;52.170;20.884;2023-09-19T05:10:23;99596.56;;;18.94;91.42
21276;BME280;36472;52.170;20.884;2023-09-19T05:12:55;99598.38;;;19.01;90.83
21276;BME280;36472;52.170;20.884;2023-09-19T05:15:26;99589.72;;;18.99;91.22
21276;BME280;36472;52.170;20.884;2023-09-19T05:17:55;99582.88;;;19.05;91.12
21276;BME280;36472;52.170;20.884;2023-09-19T05:20:25;99590.69;;;19.06;91.00
21276;BME280;36472;52.170;20.884;2023-09-19T05:22:59;99581.34;;;19.11;90.69
21276;BME280;36472;52.170;20.884;2023-09-19T05:25:31;99586.66;;;19.11;90.72
21276;BME280;36472;52.170;20.884;2023-09-19T05:28:07;99582.00;;;19.13;90.48
21276;BME280;36472;52.170;20.884;2023-09-19T05:30:38;99582.47;;;19.16;90.69
21276;BME280;36472;52.170;20.884;2023-09-19T05:37:39;99582.13;;;19.19;90.57
21276;BME280;36472;52.170;20.884;2023-09-19T05:40:10;99580.63;;;19.25;90.37
21276;BME280;36472;52.170;20.884;2023-09-19T05:42:40;99583.56;;;19.30;90.23
21276;BME280;36472;52.170;20.884;2023-09-19T05:45:09;99579.53;;;19.34;89.83
21276;BME280;36472;52.170;20.884;2023-09-19T05:47:42;99572.50;;;19.41;89.43
21276;BME280;36472;52.170;20.884;2023-09-19T05:50:13;99571.16;;;19.46;89.43
21276;BME280;36472;52.170;20.884;2023-09-19T05:52:43;99572.56;;;19.56;88.86
21276;BME280;36472;52.170;20.884;2023-09-19T05:55:13;99571.72;;;19.56;88.81
21276;BME280;36472;52.170;20.884;2023-09-19T05:57:42;99579.34;;;19.59;88.71
21276;BME280;36472;52.170;20.884;2023-09-19T06:00:12;99578.63;;;19.65;88.49
21276;BME280;36472;52.170;20.884;2023-09-19T06:02:44;99589.13;;;19.67;88.83
21276;BME280;36472;52.170;20.884;2023-09-19T06:05:13;99595.88;;;19.77;88.52
21276;BME280;36472;52.170;20.884;2023-09-19T06:07:42;99602.16;;;19.85;88.37
21276;BME280;36472;52.170;20.884;2023-09-19T06:10:11;99601.75;;;19.96;88.30
21276;BME280;36472;52.170;20.884;2023-09-19T06:12:42;99603.97;;;20.07;88.00
21276;BME280;36472;52.170;20.884;2023-09-19T06:15:13;99604.38;;;20.19;87.23
21276;BME280;36472;52.170;20.884;2023-09-19T06:17:47;99616.97;;;20.25;86.37
21276;BME280;36472;52.170;20.884;2023-09-19T06:20:17;99620.09;;;20.29;85.62
21276;BME280;36472;52.170;20.884;2023-09-19T06:22:53;99621.22;;;20.34;85.46
21276;BME280;36472;52.170;20.884;2023-09-19T06:25:22;99616.81;;;20.42;85.38
21276;BME280;36472;52.170;20.884;2023-09-19T06:32:27;99622.72;;;20.67;83.88
21276;BME280;36472;52.170;20.884;2023-09-19T06:34:58;99617.47;;;20.73;82.64
21276;BME280;36472;52.170;20.884;2023-09-19T06:37:27;99624.72;;;20.80;81.91
21276;BME280;36472;52.170;20.884;2023-09-19T06:44:29;99626.19;;;20.97;81.72
21276;BME280;36472;52.170;20.884;2023-09-19T06:46:59;99632.72;;;21.09;80.76
21276;BME280;36472;52.170;20.884;2023-09-19T06:49:28;99631.59;;;21.19;80.46
21276;BME280;36472;52.170;20.884;2023-09-19T06:52:00;99624.53;;;21.33;80.02
21276;BME280;36472;52.170;20.884;2023-09-19T06:54:30;99628.22;;;21.46;78.61
21276;BME280;36472;52.170;20.884;2023-09-19T07:01:36;99625.00;;;21.73;77.18
21276;BME280;36472;52.170;20.884;2023-09-19T07:04:05;99627.06;;;21.77;76.75
21276;BME280;36472;52.170;20.884;2023-09-19T07:06:35;99623.00;;;21.81;77.10
21276;BME280;36472;52.170;20.884;2023-09-19T07:09:05;99634.41;;;21.90;76.42
21276;BME280;36472;52.170;20.884;2023-09-19T07:11:34;99638.19;;;22.02;75.77
21276;BME280;36472;52.170;20.884;2023-09-19T07:14:04;99644.84;;;22.13;75.77
21276;BME280;36472;52.170;20.884;2023-09-19T07:16:34;99643.91;;;22.21;75.60
21276;BME280;36472;52.170;20.884;2023-09-19T07:19:03;99644.53;;;22.23;73.80
21276;BME280;36472;52.170;20.884;2023-09-19T07:21:33;99651.31;;;22.26;73.71
21276;BME280;36472;52.170;20.884;2023-09-19T07:24:05;99654.31;;;22.37;73.98
21276;BME280;36472;52.170;20.884;2023-09-19T07:26:36;99652.72;;;22.43;73.44
21276;BME280;36472;52.170;20.884;2023-09-19T07:29:07;99662.66;;;22.49;72.72
21276;BME280;36472;52.170;20.884;2023-09-19T07:36:12;99669.63;;;22.44;72.01
21276;BME280;36472;52.170;20.884;2023-09-19T07:38:42;99678.13;;;22.54;71.55
21276;BME280;36472;52.170;20.884;2023-09-19T07:41:15;99678.13;;;22.54;70.94
21276;BME280;36472;52.170;20.884;2023-09-19T07:43:44;99682.84;;;22.52;71.19
21276;BME280;36472;52.170;20.884;2023-09-19T07:46:13;99677.97;;;22.62;71.23
21276;BME280;36472;52.170;20.884;2023-09-19T07:48:42;99682.63;;;22.47;70.97
21276;BME280;36472;52.170;20.884;2023-09-19T07:51:19;99677.84;;;22.42;71.76
21276;BME280;36472;52.170;20.884;2023-09-19T07:53:48;99672.06;;;22.38;72.22
21276;BME280;36472;52.170;20.884;2023-09-19T07:56:18;99668.75;;;22.36;72.15
21276;BME280;36472;52.170;20.884;2023-09-19T07:58:51;99674.72;;;22.38;71.96
21276;BME280;36472;52.170;20.884;2023-09-19T08:01:20;99676.16;;;22.34;72.29
21276;BME280;36472;52.170;20.884;2023-09-19T08:03:51;99680.31;;;22.44;72.37
21276;BME280;36472;52.170;20.884;2023-09-19T08:10:53;99699.59;;;22.60;72.04
21276;BME280;36472;52.170;20.884;2023-09-19T08:13:25;99705.88;;;22.74;71.79
21276;BME280;36472;52.170;20.884;2023-09-19T08:15:55;99706.09;;;22.79;71.71
21276;BME280;36472;52.170;20.884;2023-09-19T08:18:24;99706.69;;;22.75;71.49
21276;BME280;36472;52.170;20.884;2023-09-19T08:20:54;99702.78;;;22.77;72.02
21276;BME280;36472;52.170;20.884;2023-09-19T08:23:26;99704.00;;;22.75;71.88
21276;BME280;36472;52.170;20.884;2023-09-19T08:25:57;99703.88;;;22.55;72.18
21276;BME280;36472;52.170;20.884;2023-09-19T08:28:37;99709.19;;;22.48;72.68
21276;BME280;36472;52.170;20.884;2023-09-19T08:31:08;99712.44;;;22.22;73.25
21276;BME280;36472;52.170;20.884;2023-09-19T08:33:38;99709.91;;;22.14;74.24
21276;BME280;36472;52.170;20.884;2023-09-19T08:36:08;99710.50;;;22.09;74.28
21276;BME280;36472;52.170;20.884;2023-09-19T08:38:37;99712.34;;;21.87;75.39
21276;BME280;36472;52.170;20.884;2023-09-19T08:41:07;99708.75;;;22.01;75.19
21276;BME280;36472;52.170;20.884;2023-09-19T08:43:38;99704.69;;;22.06;75.53
21276;BME280;36472;52.170;20.884;2023-09-19T08:46:11;99705.50;;;22.06;75.56
21276;BME280;36472;52.170;20.884;2023-09-19T08:48:52;99707.88;;;21.94;75.90
21276;BME280;36472;52.170;20.884;2023-09-19T08:51:30;99697.16;;;21.94;75.81
21276;BME280;36472;52.170;20.884;2023-09-19T08:54:07;99697.81;;;21.96;76.34
21276;BME280;36472;52.170;20.884;2023-09-19T08:56:38;99698.59;;;21.90;76.60
21276;BME280;36472;52.170;20.884;2023-09-19T09:03:42;99706.09;;;21.80;77.42
21276;BME280;36472;52.170;20.884;2023-09-19T09:06:16;99705.22;;;21.73;78.04
21276;BME280;36472;52.170;20.884;2023-09-19T09:08:47;99717.03;;;21.63;78.15
21276;BME280;36472;52.170;20.884;2023-09-19T09:11:16;99734.28;;;21.61;78.80
21276;BME280;36472;52.170;20.884;2023-09-19T09:13:47;99737.25;;;21.51;79.38
21276;BME280;36472;52.170;20.884;2023-09-19T09:16:16;99740.72;;;21.37;80.23
21276;BME280;36472;52.170;20.884;2023-09-19T09:18:49;99722.78;;;21.16;82.55
21276;BME280;36472;52.170;20.884;2023-09-19T09:21:21;99705.72;;;20.57;89.54
21276;BME280;36472;52.170;20.884;2023-09-19T09:23:53;99718.06;;;19.97;95.13
21276;BME280;36472;52.170;20.884;2023-09-19T09:26:41;99725.91;;;19.59;99.66
21276;BME280;36472;52.170;20.884;2023-09-19T09:29:14;99731.25;;;19.28;100.00
21276;BME280;36472;52.170;20.884;2023-09-19T09:31:48;99737.44;;;19.20;100.00
21276;BME280;36472;52.170;20.884;2023-09-19T09:34:19;99738.13;;;19.14;100.00
21276;BME280;36472;52.170;20.884;2023-09-19T09:36:49;99747.81;;;19.06;100.00
21276;BME280;36472;52.170;20.884;2023-09-19T09:39:30;99752.50;;;18.96;100.00
21276;BME280;36472;52.170;20.884;2023-09-19T09:42:00;99748.16;;;18.87;100.00
21276;BME280;36472;52.170;20.884;2023-09-19T09:44:37;99752.19;;;18.83;100.00
21276;BME280;36472;52.170;20.884;2023-09-19T09:47:06;99757.16;;;18.78;100.00
21276;BME280;36472;52.170;20.884;2023-09-19T09:49:54;99763.13;;;18.80;100.00
21276;BME280;36472;52.170;20.884;2023-09-19T09:52:45;99763.66;;;18.83;100.00
21276;BME280;36472;52.170;20.884;2023-09-19T09:55:15;99770.28;;;18.96;100.00
21276;BME280;36472;52.170;20.884;2023-09-19T09:58:16;99768.41;;;19.04;100.00
21276;BME280;36472;52.170;20.884;2023-09-19T10:00:56;99782.44;;;19.06;100.00
21276;BME280;36472;52.170;20.884;2023-09-19T10:03:33;99778.56;;;19.09;100.00
21276;BME280;36472;52.170;20.884;2023-09-19T10:06:11;99785.06;;;19.15;100.00
21276;BME280;36472;52.170;20.884;2023-09-19T10:08:59;99782.53;;;19.21;100.00
21276;BME280;36472;52.170;20.884;2023-09-19T10:11:43;99783.88;;;19.25;100.00
21276;BME280;36472;52.170;20.884;2023-09-19T10:14:15;99787.66;;;19.31;100.00
21276;BME280;36472;52.170;20.884;2023-09-19T10:16:49;99779.16;;;19.36;100.00
21276;BME280;36472;52.170;20.884;2023-09-19T10:19:27;99779.34;;;19.34;100.00
21276;BME280;36472;52.170;20.884;2023-09-19T10:22:01;99790.81;;;19.35;100.00
21276;BME280;36472;52.170;20.884;2023-09-19T10:24:30;99781.34;;;19.32;100.00
21276;BME280;36472;52.170;20.884;2023-09-19T10:27:07;99783.00;;;19.33;100.00
21276;BME280;36472;52.170;20.884;2023-09-19T10:29:40;99790.66;;;19.36;100.00
21276;BME280;36472;52.170;20.884;2023-09-19T10:36:52;99768.25;;;19.54;100.00
21276;BME280;36472;52.170;20.884;2023-09-19T10:39:23;99766.38;;;19.62;100.00
21276;BME280;36472;52.170;20.884;2023-09-19T10:41:55;99766.69;;;19.68;100.00
21276;BME280;36472;52.170;20.884;2023-09-19T10:44:27;99774.03;;;19.66;100.00
21276;BME280;36472;52.170;20.884;2023-09-19T10:46:59;99768.81;;;19.72;100.00
21276;BME280;36472;52.170;20.884;2023-09-19T10:49:28;99774.03;;;19.66;100.00
21276;BME280;36472;52.170;20.884;2023-09-19T10:52:00;99781.72;;;19.60;100.00
21276;BME280;36472;52.170;20.884;2023-09-19T10:54:34;99792.53;;;19.59;100.00
21276;BME280;36472;52.170;20.884;2023-09-19T10:57:05;99788.25;;;19.58;100.00
21276;BME280;36472;52.170;20.884;2023-09-19T10:59:36;99791.72;;;19.58;100.00
21276;BME280;36472;52.170;20.884;2023-09-19T11:02:17;99792.03;;;19.63;100.00
21276;BME280;36472;52.170;20.884;2023-09-19T11:04:47;99792.00;;;19.72;100.00
21276;BME280;36472;52.170;20.884;2023-09-19T11:07:18;99794.78;;;19.87;100.00
21276;BME280;36472;52.170;20.884;2023-09-19T11:09:49;99794.72;;;19.95;100.00
21276;BME280;36472;52.170;20.884;2023-09-19T11:12:49;99795.31;;;20.05;100.00
21276;BME280;36472;52.170;20.884;2023-09-19T11:23:24;99803.91;;;19.92;100.00
21276;BME280;36472;52.170;20.884;2023-09-19T11:25:56;99799.34;;;19.78;100.00
21276;BME280;36472;52.170;20.884;2023-09-19T11:28:33;99796.00;;;19.68;100.00
21276;BME280;36472;52.170;20.884;2023-09-19T11:31:42;99786.66;;;19.72;100.00
21276;BME280;36472;52.170;20.884;2023-09-19T11:34:45;99789.31;;;19.80;100.00
21276;BME280;36472;52.170;20.884;2023-09-19T11:37:59;99806.63;;;19.84;100.00
21276;BME280;36472;52.170;20.884;2023-09-19T11:40:35;99806.75;;;19.91;100.00
21276;BME280;36472;52.170;20.884;2023-09-19T11:43:31;99806.75;;;19.91;100.00
21276;BME280;36472;52.170;20.884;2023-09-19T11:46:06;99813.38;;;19.95;100.00
21276;BME280;36472;52.170;20.884;2023-09-19T11:48:38;99812.03;;;19.99;100.00
21276;BME280;36472;52.170;20.884;2023-09-19T11:51:20;99808.00;;;20.03;100.00
21276;BME280;36472;52.170;20.884;2023-09-19T11:53:57;99811.53;;;20.04;100.00
21276;BME280;36472;52.170;20.884;2023-09-19T11:56:28;99817.03;;;20.02;100.00
21276;BME280;36472;52.170;20.884;2023-09-19T11:59:00;99813.00;;;20.06;100.00
21276;BME280;36472;52.170;20.884;2023-09-19T12:01:32;99810.69;;;20.03;100.00
21276;BME280;36472;52.170;20.884;2023-09-19T12:04:03;99820.19;;;20.06;100.00
21276;BME280;36472;52.170;20.884;2023-09-19T12:11:06;99821.00;;;20.06;100.00
21276;BME280;36472;52.170;20.884;2023-09-19T12:13:43;99820.31;;;20.12;100.00
21276;BME280;36472;52.170;20.884;2023-09-19T12:16:19;99820.44;;;20.19;100.00
21276;BME280;36472;52.170;20.884;2023-09-19T12:18:50;99834.25;;;20.23;100.00
21276;BME280;36472;52.170;20.884;2023-09-19T12:21:30;99833.56;;;20.21;100.00
21276;BME280;36472;52.170;20.884;2023-09-19T12:24:07;99838.22;;;20.27;100.00
21276;BME280;36472;52.170;20.884;2023-09-19T12:26:42;99831.56;;;20.23;100.00
21276;BME280;36472;52.170;20.884;2023-09-19T12:29:14;99836.75;;;20.24;100.00
21276;BME280;36472;52.170;20.884;2023-09-19T12:31:52;99841.22;;;20.24;100.00
21276;BME280;36472;52.170;20.884;2023-09-19T12:34:24;99842.72;;;20.26;100.00
21276;BME280;36472;52.170;20.884;2023-09-19T12:37:06;99839.88;;;20.28;100.00
21276;BME280;36472;52.170;20.884;2023-09-19T12:39:41;99841.69;;;20.27;100.00
21276;BME280;36472;52.170;20.884;2023-09-19T12:42:11;99845.69;;;20.31;100.00
21276;BME280;36472;52.170;20.884;2023-09-19T12:44:44;99842.84;;;20.33;100.00
21276;BME280;36472;52.170;20.884;2023-09-19T12:47:16;99847.47;;;20.39;100.00
21276;BME280;36472;52.170;20.884;2023-09-19T12:50:11;99843.44;;;20.43;100.00
21276;BME280;36472;52.170;20.884;2023-09-19T12:52:46;99835.44;;;20.43;100.00
21276;BME280;36472;52.170;20.884;2023-09-19T12:55:22;99827.09;;;20.46;100.00
21276;BME280;36472;52.170;20.884;2023-09-19T12:58:07;99832.03;;;20.49;100.00
21276;BME280;36472;52.170;20.884;2023-09-19T13:00:39;99824.03;;;20.49;100.00
21276;BME280;36472;52.170;20.884;2023-09-19T13:07:43;99832.41;;;20.46;100.00
21276;BME280;36472;52.170;20.884;2023-09-19T13:10:13;99826.69;;;20.49;100.00
21276;BME280;36472;52.170;20.884;2023-09-19T13:12:44;99829.03;;;20.52;100.00
21276;BME280;36472;52.170;20.884;2023-09-19T13:15:15;99824.50;;;20.53;100.00
21276;BME280;36472;52.170;20.884;2023-09-19T13:17:49;99831.69;;;20.52;100.00
21276;BME280;36472;52.170;20.884;2023-09-19T13:20:23;99832.50;;;20.53;100.00
21276;BME280;36472;52.170;20.884;2023-09-19T13:27:28;99837.50;;;20.56;100.00
21276;BME280;36472;52.170;20.884;2023-09-19T13:29:58;99840.00;;;20.58;100.00
21276;BME280;36472;52.170;20.884;2023-09-19T13:36:59;99843.63;;;20.65;100.00
21276;BME280;36472;52.170;20.884;2023-09-19T13:39:29;99841.63;;;20.67;100.00
21276;BME280;36472;52.170;20.884;2023-09-19T13:41:59;99849.25;;;20.70;100.00
21276;BME280;36472;52.170;20.884;2023-09-19T13:49:04;99845.88;;;20.76;100.00
21276;BME280;36472;52.170;20.884;2023-09-19T13:51:33;99850.56;;;20.74;100.00
21276;BME280;36472;52.170;20.884;2023-09-19T13:54:02;99841.94;;;20.72;100.00
21276;BME280;36472;52.170;20.884;2023-09-19T13:56:31;99850.56;;;20.74;100.00
21276;BME280;36472;52.170;20.884;2023-09-19T13:59:01;99841.53;;;20.75;100.00
21276;BME280;36472;52.170;20.884;2023-09-19T14:01:31;99838.22;;;20.73;100.00
21276;BME280;36472;52.170;20.884;2023-09-19T14:04:02;99846.41;;;20.71;100.00
21276;BME280;36472;52.170;20.884;2023-09-19T14:06:31;99852.97;;;20.69;100.00
21276;BME280;36472;52.170;20.884;2023-09-19T14:09:01;99858.66;;;20.66;100.00
21276;BME280;36472;52.170;20.884;2023-09-19T14:11:31;99862.16;;;20.58;100.00
21276;BME280;36472;52.170;20.884;2023-09-19T14:14:00;99863.25;;;20.49;100.00
21276;BME280;36472;52.170;20.884;2023-09-19T14:16:30;99860.38;;;20.27;100.00
21276;BME280;36472;52.170;20.884;2023-09-19T14:19:03;99871.59;;;20.23;100.00
21276;BME280;36472;52.170;20.884;2023-09-19T14:21:32;99856.16;;;20.10;100.00
21276;BME280;36472;52.170;20.884;2023-09-19T14:28:33;99859.16;;;20.07;100.00
21276;BME280;36472;52.170;20.884;2023-09-19T14:31:06;99860.31;;;20.12;100.00
21276;BME280;36472;52.170;20.884;2023-09-19T14:33:37;99863.81;;;20.13;100.00